createdAt,value
2019-01-04T00:00:31.527Z,3.69
2019-01-04T00:03:01.281Z,3.58
2019-01-04T00:05:30.592Z,3.57
2019-01-04T00:08:00.660Z,3.50
2019-01-04T00:10:29.983Z,3.54
2019-01-04T00:12:59.923Z,3.62
2019-01-04T00:15:32.525Z,3.65
2019-01-04T00:18:01.838Z,3.65
2019-01-04T00:20:31.473Z,3.55
2019-01-04T00:23:00.768Z,3.45
2019-01-04T00:25:30.654Z,3.36
2019-01-04T00:28:00.241Z,3.35
2019-01-04T00:30:29.703Z,3.43
2019-01-04T00:32:58.986Z,3.39
2019-01-04T00:35:30.212Z,3.38
2019-01-04T00:37:59.589Z,3.30
2019-01-04T00:40:29.825Z,3.06
2019-01-04T00:42:59.321Z,2.95
2019-01-04T00:45:28.890Z,2.99
2019-01-04T00:47:58.258Z,2.87
2019-01-04T00:50:28.694Z,2.81
2019-01-04T00:52:58.136Z,2.79
2019-01-04T00:55:36.555Z,2.77
2019-01-04T00:58:11.621Z,3.00
2019-01-04T01:00:49.986Z,2.96
2019-01-04T01:03:42.237Z,2.87
2019-01-04T01:06:17.288Z,2.74
2019-01-04T01:09:11.002Z,2.91
2019-01-04T01:12:11.662Z,2.67
2019-01-04T01:15:01.224Z,2.61
2019-01-04T01:17:42.293Z,2.60
2019-01-04T01:20:38.823Z,2.58
2019-01-04T01:23:19.991Z,2.61
2019-01-04T01:26:08.854Z,2.73
2019-01-04T01:28:56.219Z,2.73
2019-01-04T01:31:57.346Z,2.88
2019-01-04T01:34:38.315Z,2.89
2019-01-04T01:37:43.967Z,2.92
2019-01-04T01:40:41.952Z,2.95
2019-01-04T01:43:41.874Z,2.86
2019-01-04T01:46:26.513Z,2.95
2019-01-04T01:49:16.487Z,3.12
2019-01-04T01:51:54.867Z,3.03
2019-01-04T01:54:24.194Z,3.09
2019-01-04T01:56:53.525Z,3.01
2019-01-04T01:59:22.861Z,3.06
2019-01-04T02:01:52.192Z,3.05
2019-01-04T02:04:21.592Z,3.00
2019-01-04T02:06:50.911Z,3.02
2019-01-04T02:09:20.612Z,3.18
2019-01-04T02:11:50.340Z,3.20
2019-01-04T02:14:19.820Z,3.03
2019-01-04T02:16:49.119Z,3.15
2019-01-04T02:19:18.798Z,3.11
2019-01-04T02:21:48.112Z,3.04
2019-01-04T02:24:17.427Z,3.10
2019-01-04T02:26:46.730Z,2.99
2019-01-04T02:29:16.372Z,2.95
2019-01-04T02:31:45.690Z,3.03
2019-01-04T02:34:15.081Z,3.06
2019-01-04T02:36:44.383Z,3.00
2019-01-04T02:39:13.724Z,3.07
2019-01-04T02:41:43.039Z,3.08
2019-01-04T02:44:12.359Z,2.97
2019-01-04T02:46:41.744Z,3.02
2019-01-04T02:49:11.077Z,2.99
2019-01-04T02:51:40.392Z,2.99
2019-01-04T02:54:09.733Z,2.88
2019-01-04T02:56:39.704Z,2.89
2019-01-04T02:59:09.111Z,2.78
2019-01-04T03:01:38.732Z,2.82
2019-01-04T03:04:08.093Z,2.84
2019-01-04T03:06:37.392Z,2.86
2019-01-04T03:09:07.153Z,2.91
2019-01-04T03:11:36.471Z,2.91
2019-01-04T03:14:06.090Z,2.88
2019-01-04T03:16:35.420Z,2.98
2019-01-04T03:19:04.804Z,2.92
2019-01-04T03:21:34.126Z,2.93
2019-01-04T03:24:04.087Z,3.05
2019-01-04T03:26:33.420Z,3.13
2019-01-04T03:29:02.788Z,3.28
2019-01-04T03:31:32.178Z,3.33
2019-01-04T03:34:01.494Z,3.40
2019-01-04T03:36:30.819Z,3.41
2019-01-04T03:39:00.619Z,3.28
2019-01-04T03:41:29.951Z,3.22
2019-01-04T03:43:59.272Z,3.37
2019-01-04T03:46:28.578Z,3.39
2019-01-04T03:48:58.196Z,3.44
2019-01-04T03:51:28.190Z,3.50
2019-01-04T03:53:57.524Z,3.60
2019-01-04T03:56:27.129Z,3.56
2019-01-04T03:58:56.784Z,3.58
2019-01-04T04:01:26.301Z,3.64
2019-01-04T04:03:55.696Z,3.66
2019-01-04T04:06:25.021Z,3.62
2019-01-04T04:08:54.348Z,3.56
2019-01-04T04:11:23.773Z,3.63
2019-01-04T04:13:53.448Z,3.61
2019-01-04T04:16:22.741Z,3.62
2019-01-04T04:18:52.969Z,3.71
2019-01-04T04:21:22.843Z,3.62
2019-01-04T04:23:52.157Z,3.47
2019-01-04T04:26:21.468Z,3.34
2019-01-04T04:28:50.783Z,3.27
2019-01-04T04:31:20.121Z,3.38
2019-01-04T04:33:49.439Z,3.56
2019-01-04T04:36:19.769Z,3.78
2019-01-04T04:38:49.080Z,3.48
2019-01-04T04:41:18.411Z,3.41
2019-01-04T04:43:47.843Z,3.24
2019-01-04T04:46:17.160Z,3.45
2019-01-04T04:48:46.683Z,3.35
2019-01-04T04:51:16.053Z,3.28
2019-01-04T04:53:45.370Z,3.41
2019-01-04T04:56:15.124Z,3.16
2019-01-04T04:58:44.455Z,3.20
2019-01-04T05:01:13.957Z,3.38
2019-01-04T05:03:43.267Z,3.45
2019-01-04T05:06:12.912Z,3.42
2019-01-04T05:08:42.217Z,3.47
2019-01-04T05:11:11.625Z,3.46
2019-01-04T05:13:41.113Z,3.43
2019-01-04T05:16:10.616Z,3.39
2019-01-04T05:18:40.520Z,3.30
2019-01-04T05:21:10.015Z,3.33
2019-01-04T05:23:39.353Z,3.29
2019-01-04T05:26:08.841Z,3.29
2019-01-04T05:28:38.148Z,3.32
2019-01-04T05:31:07.486Z,3.41
2019-01-04T05:33:37.159Z,3.50
2019-01-04T05:36:06.475Z,3.42
2019-01-04T05:38:35.799Z,3.29
2019-01-04T05:41:05.137Z,3.52
2019-01-04T05:43:34.437Z,3.57
2019-01-04T05:46:03.781Z,3.54
2019-01-04T05:48:33.070Z,3.63
2019-01-04T05:51:02.907Z,3.49
2019-01-04T05:53:32.543Z,3.50
2019-01-04T05:56:02.043Z,3.53
2019-01-04T05:58:31.370Z,3.40
2019-01-04T06:01:00.696Z,3.34
2019-01-04T06:03:30.029Z,3.54
2019-01-04T06:05:59.322Z,3.45
2019-01-04T06:08:28.673Z,3.53
2019-01-04T06:10:58.114Z,3.57
2019-01-04T06:13:28.097Z,3.42
2019-01-04T06:15:57.398Z,3.34
2019-01-04T06:18:26.906Z,3.31
2019-01-04T06:20:56.704Z,3.44
2019-01-04T06:23:26.497Z,3.31
2019-01-04T06:25:55.882Z,3.65
2019-01-04T06:28:25.288Z,3.57
2019-01-04T06:30:54.960Z,3.63
2019-01-04T06:33:24.318Z,3.65
2019-01-04T06:35:53.635Z,3.66
2019-01-04T06:38:22.978Z,3.77
2019-01-04T06:40:52.508Z,3.69
2019-01-04T06:43:22.555Z,3.60
2019-01-04T06:45:51.887Z,3.67
2019-01-04T06:48:21.210Z,3.56
2019-01-04T06:50:50.546Z,3.61
2019-01-04T06:53:19.868Z,3.65
2019-01-04T06:55:51.905Z,3.75
2019-01-04T06:58:21.210Z,3.76
2019-01-04T07:00:50.622Z,3.80
2019-01-04T07:03:19.918Z,3.91
2019-01-04T07:05:49.238Z,4.05
2019-01-04T07:08:18.636Z,4.00
2019-01-04T07:10:47.957Z,3.91
2019-01-04T07:13:17.330Z,3.98
2019-01-04T07:15:46.635Z,3.93
2019-01-04T07:18:16.092Z,4.08
2019-01-04T07:20:45.406Z,4.03
2019-01-04T07:23:14.899Z,4.04
2019-01-04T07:25:44.184Z,3.98
2019-01-04T07:28:13.499Z,4.02
2019-01-04T07:30:42.793Z,3.97
2019-01-04T07:33:12.355Z,3.99
2019-01-04T07:35:41.644Z,4.13
2019-01-04T07:38:10.973Z,4.10
2019-01-04T07:40:40.266Z,4.10
2019-01-04T07:43:09.593Z,4.18
2019-01-04T07:45:38.889Z,4.05
2019-01-04T07:48:08.198Z,3.96
2019-01-04T07:50:37.717Z,4.00
2019-01-04T07:53:07.046Z,3.93
2019-01-04T07:55:36.350Z,3.94
2019-01-04T07:58:05.732Z,3.88
2019-01-04T08:00:35.024Z,3.90
2019-01-04T08:03:05.490Z,3.92
2019-01-04T08:05:34.809Z,3.91
2019-01-04T08:08:04.278Z,3.93
2019-01-04T08:10:33.812Z,3.90
2019-01-04T08:13:03.280Z,3.92
2019-01-04T08:15:32.978Z,3.89
2019-01-04T08:18:02.293Z,3.93
2019-01-04T08:20:31.632Z,3.87
2019-01-04T08:23:01.165Z,3.97
2019-01-04T08:25:30.942Z,3.94
2019-01-04T08:28:00.235Z,3.82
2019-01-04T08:30:29.578Z,3.78
2019-01-04T08:32:59.021Z,4.02
2019-01-04T08:35:28.816Z,4.04
2019-01-04T08:37:58.413Z,4.31
2019-01-04T08:40:29.282Z,4.23
2019-01-04T08:42:58.641Z,3.91
2019-01-04T08:45:28.163Z,4.08
2019-01-04T08:47:57.656Z,4.09
2019-01-04T08:50:26.981Z,4.08
2019-01-04T08:52:56.280Z,4.03
2019-01-04T08:55:25.641Z,4.12
2019-01-04T08:57:54.936Z,4.11
2019-01-04T09:00:24.275Z,4.28
2019-01-04T09:02:53.566Z,4.37
2019-01-04T09:05:22.949Z,4.38
2019-01-04T09:07:52.246Z,4.44
2019-01-04T09:10:21.829Z,4.31
2019-01-04T09:12:51.147Z,4.31
2019-01-04T09:15:20.772Z,4.39
2019-01-04T09:17:50.086Z,4.26
2019-01-04T09:20:19.377Z,4.22
2019-01-04T09:22:48.684Z,4.43
2019-01-04T09:25:18.092Z,4.38
2019-01-04T09:27:47.392Z,4.54
2019-01-04T09:30:17.086Z,4.68
2019-01-04T09:32:46.472Z,4.62
2019-01-04T09:35:15.808Z,4.68
2019-01-04T09:37:45.130Z,4.54
2019-01-04T09:40:14.465Z,4.30
2019-01-04T09:42:43.853Z,4.55
2019-01-04T09:45:13.339Z,4.29
2019-01-04T09:47:42.645Z,4.50
2019-01-04T09:50:12.294Z,4.55
2019-01-04T09:52:41.592Z,4.54
2019-01-04T09:55:10.904Z,4.66
2019-01-04T09:57:40.708Z,4.60
2019-01-04T10:00:11.129Z,4.38
2019-01-04T10:02:40.790Z,4.49
2019-01-04T10:05:10.150Z,4.36
2019-01-04T10:07:39.548Z,4.48
2019-01-04T10:10:10.385Z,4.26
2019-01-04T10:12:39.969Z,4.08
2019-01-04T10:15:15.314Z,4.21
2019-01-04T10:17:44.695Z,4.15
2019-01-04T10:20:14.248Z,4.13
2019-01-04T10:22:43.571Z,4.37
2019-01-04T10:25:12.978Z,4.22
2019-01-04T10:27:42.373Z,4.41
2019-01-04T10:30:14.806Z,4.65
2019-01-04T10:32:44.187Z,4.71
2019-01-04T10:35:13.622Z,4.78
2019-01-04T10:37:42.922Z,4.81
2019-01-04T10:40:12.563Z,4.74
2019-01-04T10:42:41.858Z,4.38
2019-01-04T10:45:11.326Z,4.55
2019-01-04T10:47:41.483Z,4.28
2019-01-04T10:50:10.830Z,4.24
2019-01-04T10:52:40.157Z,4.50
2019-01-04T10:55:09.560Z,4.37
2019-01-04T10:57:38.900Z,4.53
2019-01-04T11:00:10.799Z,4.59
2019-01-04T11:02:40.121Z,4.68
2019-01-04T11:05:09.884Z,4.68
2019-01-04T11:07:39.228Z,4.76
2019-01-04T11:10:13.637Z,4.62
2019-01-04T11:12:42.948Z,4.96
2019-01-04T11:15:12.704Z,5.09
2019-01-04T11:17:42.105Z,4.94
2019-01-04T11:20:37.243Z,4.83
2019-01-04T11:23:38.121Z,4.46
2019-01-04T11:26:16.479Z,4.64
2019-01-04T11:28:54.684Z,4.69
2019-01-04T11:31:41.551Z,4.49
2019-01-04T11:34:19.847Z,4.61
2019-01-04T11:37:00.764Z,4.56
2019-01-04T11:39:33.116Z,4.69
2019-01-04T11:42:08.029Z,4.64
2019-01-04T11:44:49.284Z,4.74
2019-01-04T11:47:39.787Z,4.54
2019-01-04T11:50:21.440Z,4.60
2019-01-04T11:52:50.997Z,4.63
2019-01-04T11:55:20.313Z,4.47
2019-01-04T11:57:49.624Z,4.55
2019-01-04T12:00:19.076Z,4.62
2019-01-04T12:02:48.400Z,4.66
2019-01-04T12:05:17.741Z,4.69
2019-01-04T12:07:47.165Z,4.80
2019-01-04T12:10:17.813Z,4.74
2019-01-04T12:12:47.362Z,4.72
2019-01-04T12:15:16.664Z,4.73
2019-01-04T12:17:46.182Z,4.88
2019-01-04T12:20:15.528Z,4.86
2019-01-04T12:22:44.844Z,4.79
2019-01-04T12:25:14.165Z,4.80
2019-01-04T12:27:43.474Z,4.81
2019-01-04T12:30:12.783Z,4.94
2019-01-04T12:32:42.110Z,4.92
2019-01-04T12:35:11.450Z,4.90
2019-01-04T12:37:40.772Z,4.98
2019-01-04T12:40:10.075Z,4.87
2019-01-04T12:42:39.387Z,4.90
2019-01-04T12:45:09.157Z,5.06
2019-01-04T12:47:38.476Z,4.99
2019-01-04T12:50:08.744Z,4.93
2019-01-04T12:52:38.059Z,4.84
2019-01-04T12:55:07.787Z,4.87
2019-01-04T12:57:37.108Z,4.85
2019-01-04T13:00:09.585Z,4.91
2019-01-04T13:02:38.892Z,4.78
2019-01-04T13:05:08.277Z,4.92
2019-01-04T13:07:37.583Z,4.78
2019-01-04T13:10:07.556Z,4.77
2019-01-04T13:12:36.857Z,4.79
2019-01-04T13:15:07.052Z,4.91
2019-01-04T13:17:36.334Z,4.76
2019-01-04T13:20:06.386Z,4.77
2019-01-04T13:22:35.677Z,4.74
2019-01-04T13:25:05.837Z,4.75
2019-01-04T13:27:35.162Z,4.86
2019-01-04T13:30:05.628Z,4.75
2019-01-04T13:32:36.855Z,4.76
2019-01-04T13:35:06.229Z,4.72
2019-01-04T13:37:35.623Z,4.71
2019-01-04T13:40:06.271Z,4.70
2019-01-04T13:42:36.128Z,4.74
2019-01-04T13:45:07.601Z,4.66
2019-01-04T13:47:36.927Z,4.73
2019-01-04T13:50:08.032Z,4.86
2019-01-04T13:52:37.366Z,4.82
2019-01-04T13:55:06.875Z,4.91
2019-01-04T13:57:36.658Z,4.81
2019-01-04T14:00:09.093Z,4.86
2019-01-04T14:02:38.425Z,4.78
2019-01-04T14:05:07.859Z,4.80
2019-01-04T14:07:37.573Z,4.74
2019-01-04T14:10:09.573Z,4.73
2019-01-04T14:12:38.912Z,4.72
2019-01-04T14:15:09.161Z,4.69
2019-01-04T14:17:38.619Z,4.66
2019-01-04T14:20:08.549Z,4.66
2019-01-04T14:22:37.898Z,4.59
2019-01-04T14:25:08.215Z,4.69
2019-01-04T14:27:37.576Z,4.63
2019-01-04T14:30:09.964Z,4.58
2019-01-04T14:32:39.988Z,4.55
2019-01-04T14:35:09.862Z,4.59
2019-01-04T14:37:39.494Z,4.52
2019-01-04T14:40:11.063Z,4.49
2019-01-04T14:42:40.703Z,4.55
2019-01-04T14:45:10.173Z,4.55
2019-01-04T14:47:39.662Z,4.49
2019-01-04T14:50:11.364Z,4.52
2019-01-04T14:52:41.580Z,4.47
2019-01-04T14:55:10.969Z,4.47
2019-01-04T14:57:40.752Z,4.45
2019-01-04T15:00:13.547Z,4.51
2019-01-04T15:02:42.861Z,4.38
2019-01-04T15:05:12.721Z,4.33
2019-01-04T15:07:42.103Z,4.31
2019-01-04T15:10:11.417Z,4.36
2019-01-04T15:12:40.712Z,4.33
2019-01-04T15:15:10.032Z,4.27
2019-01-04T15:17:39.350Z,4.28
2019-01-04T15:20:10.408Z,4.24
2019-01-04T15:22:41.231Z,4.24
2019-01-04T15:25:10.853Z,4.21
2019-01-04T15:27:40.136Z,4.19
2019-01-04T15:30:11.100Z,4.15
2019-01-04T15:32:40.407Z,4.19
2019-01-04T15:35:09.860Z,4.27
2019-01-04T15:37:39.193Z,4.19
2019-01-04T15:40:09.364Z,4.23
2019-01-04T15:42:38.927Z,4.20
2019-01-04T15:45:09.199Z,4.18
2019-01-04T15:47:41.195Z,4.18
2019-01-04T15:50:11.006Z,4.18
2019-01-04T15:52:40.336Z,4.42
2019-01-04T15:55:09.764Z,4.37
2019-01-04T15:57:39.086Z,4.37
2019-01-04T16:00:11.566Z,4.52
2019-01-04T16:02:40.889Z,4.36
2019-01-04T16:05:10.885Z,4.36
2019-01-04T16:07:40.181Z,4.30
2019-01-04T16:10:10.102Z,4.25
2019-01-04T16:12:39.398Z,4.37
2019-01-04T16:15:10.154Z,4.26
2019-01-04T16:17:39.453Z,4.22
2019-01-04T16:20:11.242Z,4.18
2019-01-04T16:22:40.545Z,4.13
2019-01-04T16:25:10.256Z,4.08
2019-01-04T16:27:39.566Z,4.10
2019-01-04T16:30:11.368Z,4.08
2019-01-04T16:32:40.755Z,4.13
2019-01-04T16:35:10.136Z,4.09
2019-01-04T16:37:39.483Z,4.07
2019-01-04T16:40:09.537Z,4.09
2019-01-04T16:42:38.852Z,4.11
2019-01-04T16:45:10.422Z,4.09
2019-01-04T16:47:39.706Z,4.16
2019-01-04T16:50:09.372Z,4.14
2019-01-04T16:52:38.682Z,4.12
2019-01-04T16:55:09.254Z,4.11
2019-01-04T16:57:38.551Z,4.03
2019-01-04T17:00:10.464Z,4.02
2019-01-04T17:02:39.791Z,4.05
2019-01-04T17:05:09.255Z,4.00
2019-01-04T17:07:38.566Z,4.08
2019-01-04T17:10:08.346Z,4.00
2019-01-04T17:12:37.634Z,4.02
2019-01-04T17:15:07.701Z,4.05
2019-01-04T17:17:37.304Z,4.09
2019-01-04T17:20:07.185Z,3.94
2019-01-04T17:22:36.493Z,4.08
2019-01-04T17:25:08.060Z,4.14
2019-01-04T17:27:37.382Z,3.99
2019-01-04T17:30:09.779Z,3.93
2019-01-04T17:32:39.065Z,3.87
2019-01-04T17:35:08.469Z,3.84
2019-01-04T17:37:37.790Z,3.85
2019-01-04T17:40:10.793Z,3.86
2019-01-04T17:42:40.251Z,3.89
2019-01-04T17:45:09.652Z,3.95
2019-01-04T17:47:38.998Z,4.00
2019-01-04T17:50:08.877Z,4.09
2019-01-04T17:52:38.212Z,4.04
2019-01-04T17:55:07.658Z,3.89
2019-01-04T17:57:37.026Z,3.93
2019-01-04T18:00:09.136Z,3.98
2019-01-04T18:02:38.418Z,3.84
2019-01-04T18:05:07.827Z,3.76
2019-01-04T18:07:37.127Z,3.86
2019-01-04T18:10:08.501Z,3.82
2019-01-04T18:12:37.964Z,3.82
2019-01-04T18:15:08.123Z,3.82
2019-01-04T18:17:37.575Z,3.83
2019-01-04T18:20:10.913Z,3.81
2019-01-04T18:22:40.691Z,3.86
2019-01-04T18:25:10.098Z,3.79
2019-01-04T18:27:39.611Z,3.85
2019-01-04T18:30:10.412Z,3.85
2019-01-04T18:32:39.841Z,3.85
2019-01-04T18:35:09.320Z,3.83
2019-01-04T18:37:38.723Z,3.81
2019-01-04T18:40:10.236Z,3.93
2019-01-04T18:42:40.036Z,3.81
2019-01-04T18:45:09.983Z,4.11
2019-01-04T18:47:39.643Z,4.04
2019-01-04T18:50:12.606Z,3.99
2019-01-04T18:52:42.109Z,4.02
2019-01-04T18:55:11.675Z,4.07
2019-01-04T18:57:41.093Z,3.86
2019-01-04T19:00:11.901Z,3.93
2019-01-04T19:02:41.515Z,3.94
2019-01-04T19:05:11.128Z,3.93
2019-01-04T19:07:40.632Z,3.99
2019-01-04T19:10:10.758Z,3.86
2019-01-04T19:12:40.203Z,3.82
2019-01-04T19:15:11.120Z,3.91
2019-01-04T19:17:40.433Z,3.75
2019-01-04T19:20:09.928Z,3.80
2019-01-04T19:22:39.244Z,3.84
2019-01-04T19:25:08.800Z,3.90
2019-01-04T19:27:39.641Z,3.83
2019-01-04T19:30:10.005Z,3.72
2019-01-04T19:32:39.450Z,3.78
2019-01-04T19:35:09.055Z,3.93
2019-01-04T19:37:38.584Z,3.72
2019-01-04T19:40:08.404Z,3.85
2019-01-04T19:42:37.852Z,3.64
2019-01-04T19:45:08.056Z,3.52
2019-01-04T19:47:37.587Z,3.50
2019-01-04T19:50:21.305Z,3.48
2019-01-04T19:52:50.750Z,3.47
2019-01-04T19:55:20.081Z,3.45
2019-01-04T19:57:49.691Z,3.49
2019-01-04T20:00:19.144Z,3.46
2019-01-04T20:02:48.548Z,3.43
2019-01-04T20:05:21.223Z,3.44
2019-01-04T20:08:20.816Z,3.48
2019-01-04T20:11:11.084Z,3.44
2019-01-04T20:14:07.921Z,3.44
2019-01-04T20:16:45.165Z,3.48
2019-01-04T20:19:16.291Z,3.50
2019-01-04T20:21:53.394Z,3.54
2019-01-04T20:24:40.819Z,3.61
2019-01-04T20:27:14.446Z,3.58
2019-01-04T20:29:45.553Z,3.63
2019-01-04T20:32:25.926Z,3.55
2019-01-04T20:35:06.185Z,3.80
2019-01-04T20:37:39.988Z,3.67
2019-01-04T20:40:13.833Z,3.75
2019-01-04T20:42:51.118Z,3.65
2019-01-04T20:45:31.163Z,3.56
2019-01-04T20:48:18.487Z,3.71
2019-01-04T20:51:04.788Z,3.83
2019-01-04T20:53:52.185Z,3.79
2019-01-04T20:56:23.321Z,3.87
2019-01-04T20:59:12.551Z,3.94
2019-01-04T21:01:46.767Z,3.67
2019-01-04T21:04:36.165Z,3.92
2019-01-04T21:07:09.995Z,4.03
2019-01-04T21:09:44.158Z,4.21
2019-01-04T21:12:15.638Z,4.10
2019-01-04T21:15:05.098Z,4.08
2019-01-04T21:17:36.221Z,4.02
2019-01-04T21:20:24.551Z,3.91
2019-01-04T21:22:55.623Z,3.96
2019-01-04T21:25:32.670Z,3.85
2019-01-04T21:28:20.034Z,3.85
2019-01-04T21:31:07.151Z,3.84
2019-01-04T21:33:54.305Z,3.93
2019-01-04T21:36:41.407Z,3.94
2019-01-04T21:39:13.290Z,4.14
2019-01-04T21:42:02.639Z,4.18
2019-01-04T21:44:39.500Z,4.20
2019-01-04T21:47:10.893Z,4.18
2019-01-04T21:49:53.720Z,3.99
2019-01-04T21:52:24.861Z,3.99
2019-01-04T21:54:58.689Z,3.95
2019-01-04T21:57:46.227Z,3.97
2019-01-04T22:00:35.564Z,4.02
2019-01-04T22:03:22.532Z,3.85
2019-01-04T22:06:02.428Z,3.55
2019-01-04T22:08:49.930Z,3.56
2019-01-04T22:11:36.977Z,3.60
2019-01-04T22:14:14.023Z,3.63
2019-01-04T22:16:45.049Z,3.74
2019-01-04T22:19:31.194Z,3.53
2019-01-04T22:22:18.315Z,3.60
2019-01-04T22:24:49.450Z,3.49
2019-01-04T22:27:36.140Z,3.51
2019-01-04T22:30:09.910Z,3.67
2019-01-04T22:32:52.779Z,3.54
2019-01-04T22:35:26.544Z,3.62
2019-01-04T22:38:06.447Z,3.62
2019-01-04T22:40:49.300Z,3.70
2019-01-04T22:43:23.069Z,3.76
2019-01-04T22:45:56.808Z,3.79
2019-01-04T22:48:43.920Z,3.77
2019-01-04T22:51:33.366Z,3.83
2019-01-04T22:54:20.614Z,3.77
2019-01-04T22:56:51.859Z,3.64
2019-01-04T22:59:39.111Z,3.80
2019-01-04T23:02:19.321Z,3.86
2019-01-04T23:04:53.746Z,3.70
2019-01-04T23:07:30.501Z,3.90
2019-01-04T23:10:07.310Z,3.88
2019-01-04T23:12:54.744Z,3.95
2019-01-04T23:15:44.550Z,3.87
2019-01-04T23:18:27.878Z,3.81
2019-01-04T23:21:14.078Z,3.87
2019-01-04T23:23:53.930Z,3.84
2019-01-04T23:26:37.531Z,3.95
2019-01-04T23:29:20.738Z,4.02
2019-01-04T23:32:00.817Z,4.14
2019-01-04T23:34:31.932Z,4.20
2019-01-04T23:37:18.847Z,4.20
2019-01-04T23:39:55.985Z,4.18
2019-01-04T23:42:30.293Z,3.95
2019-01-04T23:45:01.406Z,4.00
2019-01-04T23:47:41.754Z,3.94
2019-01-04T23:50:19.607Z,3.99
2019-01-04T23:52:50.697Z,4.00
2019-01-04T23:55:30.708Z,4.08
2019-01-04T23:58:10.522Z,4.15
